sensor_id;sensor_type;location;lat;lon;timestamp;temperature;humidity
55488;DHT22;41352;53.158;6.788;2022-10-16T00:01:30;12.10;99.90
55488;DHT22;41352;53.158;6.788;2022-10-16T00:03:56;12.00;99.90
55488;DHT22;41352;53.158;6.788;2022-10-16T00:06:22;12.00;99.90
55488;DHT22;41352;53.158;6.788;2022-10-16T00:08:48;11.90;99.90
55488;DHT22;41352;53.158;6.788;2022-10-16T00:11:16;11.90;99.90
55488;DHT22;41352;53.158;6.788;2022-10-16T00:13:42;12.20;99.90
55488;DHT22;41352;53.158;6.788;2022-10-16T00:16:08;12.00;99.90
55488;DHT22;41352;53.158;6.788;2022-10-16T00:18:34;12.00;99.90
55488;DHT22;41352;53.158;6.788;2022-10-16T00:21:04;12.00;99.90
55488;DHT22;41352;53.158;6.788;2022-10-16T00:23:30;12.00;99.90
55488;DHT22;41352;53.158;6.788;2022-10-16T00:25:57;12.00;99.90
55488;DHT22;41352;53.158;6.788;2022-10-16T00:28:23;11.90;99.90
55488;DHT22;41352;53.158;6.788;2022-10-16T00:30:48;11.90;99.90
55488;DHT22;41352;53.158;6.788;2022-10-16T00:33:14;12.00;99.90
55488;DHT22;41352;53.158;6.788;2022-10-16T00:35:40;11.90;99.90
55488;DHT22;41352;53.158;6.788;2022-10-16T00:38:05;11.90;99.90
55488;DHT22;41352;53.158;6.788;2022-10-16T00:40:31;11.90;99.90
55488;DHT22;41352;53.158;6.788;2022-10-16T00:42:57;12.00;99.90
55488;DHT22;41352;53.158;6.788;2022-10-16T00:45:22;12.10;99.90
55488;DHT22;41352;53.158;6.788;2022-10-16T00:47:48;11.90;99.90
55488;DHT22;41352;53.158;6.788;2022-10-16T00:50:18;11.90;99.90
55488;DHT22;41352;53.158;6.788;2022-10-16T00:52:47;11.90;99.90
55488;DHT22;41352;53.158;6.788;2022-10-16T00:55:14;12.00;99.90
55488;DHT22;41352;53.158;6.788;2022-10-16T00:57:40;12.00;99.90
55488;DHT22;41352;53.158;6.788;2022-10-16T01:00:08;13.30;99.90
55488;DHT22;41352;53.158;6.788;2022-10-16T01:02:34;12.00;99.90
55488;DHT22;41352;53.158;6.788;2022-10-16T01:04:59;12.00;99.90
55488;DHT22;41352;53.158;6.788;2022-10-16T01:07:37;12.00;99.90
55488;DHT22;41352;53.158;6.788;2022-10-16T01:12:58;12.00;99.90
55488;DHT22;41352;53.158;6.788;2022-10-16T01:15:25;12.00;99.90
55488;DHT22;41352;53.158;6.788;2022-10-16T01:18:38;12.00;99.90
55488;DHT22;41352;53.158;6.788;2022-10-16T01:21:21;12.00;99.90
55488;DHT22;41352;53.158;6.788;2022-10-16T01:26:08;12.00;99.90
55488;DHT22;41352;53.158;6.788;2022-10-16T01:31:19;12.00;99.90
55488;DHT22;41352;53.158;6.788;2022-10-16T01:33:50;12.00;99.90
55488;DHT22;41352;53.158;6.788;2022-10-16T01:36:19;12.00;99.90
55488;DHT22;41352;53.158;6.788;2022-10-16T01:38:47;13.60;99.90
55488;DHT22;41352;53.158;6.788;2022-10-16T01:41:14;12.00;99.90
55488;DHT22;41352;53.158;6.788;2022-10-16T01:46:34;11.90;99.90
55488;DHT22;41352;53.158;6.788;2022-10-16T01:49:01;12.00;99.90
55488;DHT22;41352;53.158;6.788;2022-10-16T01:51:28;12.00;99.90
55488;DHT22;41352;53.158;6.788;2022-10-16T01:53:54;12.00;99.90
55488;DHT22;41352;53.158;6.788;2022-10-16T01:56:21;12.00;99.90
55488;DHT22;41352;53.158;6.788;2022-10-16T01:58:52;12.10;99.90
55488;DHT22;41352;53.158;6.788;2022-10-16T02:01:20;12.00;99.90
55488;DHT22;41352;53.158;6.788;2022-10-16T02:03:46;12.10;99.90
55488;DHT22;41352;53.158;6.788;2022-10-16T02:06:12;12.00;99.90
55488;DHT22;41352;53.158;6.788;2022-10-16T02:08:37;12.10;99.90
55488;DHT22;41352;53.158;6.788;2022-10-16T02:11:04;12.10;99.90
55488;DHT22;41352;53.158;6.788;2022-10-16T02:13:31;12.10;99.90
55488;DHT22;41352;53.158;6.788;2022-10-16T02:15:58;12.10;99.90
55488;DHT22;41352;53.158;6.788;2022-10-16T02:18:23;12.50;99.90
55488;DHT22;41352;53.158;6.788;2022-10-16T02:21:02;12.10;99.90
55488;DHT22;41352;53.158;6.788;2022-10-16T02:25:55;12.20;99.90
55488;DHT22;41352;53.158;6.788;2022-10-16T02:28:23;12.10;99.90
55488;DHT22;41352;53.158;6.788;2022-10-16T02:33:21;12.10;99.90
55488;DHT22;41352;53.158;6.788;2022-10-16T02:35:47;12.10;99.90
55488;DHT22;41352;53.158;6.788;2022-10-16T02:38:14;12.10;99.90
55488;DHT22;41352;53.158;6.788;2022-10-16T02:40:40;12.20;99.90
55488;DHT22;41352;53.158;6.788;2022-10-16T02:43:06;12.20;99.90
55488;DHT22;41352;53.158;6.788;2022-10-16T02:45:31;12.20;99.90
55488;DHT22;41352;53.158;6.788;2022-10-16T02:47:57;12.40;99.90
55488;DHT22;41352;53.158;6.788;2022-10-16T02:50:22;12.60;99.90
55488;DHT22;41352;53.158;6.788;2022-10-16T02:52:49;12.30;99.90
55488;DHT22;41352;53.158;6.788;2022-10-16T02:55:15;12.30;99.90
55488;DHT22;41352;53.158;6.788;2022-10-16T02:57:40;12.30;99.90
55488;DHT22;41352;53.158;6.788;2022-10-16T03:00:07;12.40;99.90
55488;DHT22;41352;53.158;6.788;2022-10-16T03:02:33;12.30;99.90
55488;DHT22;41352;53.158;6.788;2022-10-16T03:04:58;12.30;99.90
55488;DHT22;41352;53.158;6.788;2022-10-16T03:07:24;12.40;99.90
55488;DHT22;41352;53.158;6.788;2022-10-16T03:09:49;12.40;99.90
55488;DHT22;41352;53.158;6.788;2022-10-16T03:12:15;12.40;99.90
55488;DHT22;41352;53.158;6.788;2022-10-16T03:14:41;12.40;99.90
55488;DHT22;41352;53.158;6.788;2022-10-16T03:17:06;12.50;99.90
55488;DHT22;41352;53.158;6.788;2022-10-16T03:19:32;12.50;99.90
55488;DHT22;41352;53.158;6.788;2022-10-16T03:21:57;12.50;99.90
55488;DHT22;41352;53.158;6.788;2022-10-16T03:24:23;12.50;99.90
55488;DHT22;41352;53.158;6.788;2022-10-16T03:26:48;12.60;99.90
55488;DHT22;41352;53.158;6.788;2022-10-16T03:29:14;12.50;99.90
55488;DHT22;41352;53.158;6.788;2022-10-16T03:31:39;12.60;99.90
55488;DHT22;41352;53.158;6.788;2022-10-16T03:34:05;12.90;99.90
55488;DHT22;41352;53.158;6.788;2022-10-16T03:36:30;12.50;99.90
55488;DHT22;41352;53.158;6.788;2022-10-16T03:38:56;12.50;99.90
55488;DHT22;41352;53.158;6.788;2022-10-16T03:41:22;12.50;99.90
55488;DHT22;41352;53.158;6.788;2022-10-16T03:43:47;12.50;99.90
55488;DHT22;41352;53.158;6.788;2022-10-16T03:46:13;12.60;99.90
55488;DHT22;41352;53.158;6.788;2022-10-16T03:48:38;12.60;99.90
55488;DHT22;41352;53.158;6.788;2022-10-16T03:51:05;12.60;99.90
55488;DHT22;41352;53.158;6.788;2022-10-16T03:53:30;12.70;99.90
55488;DHT22;41352;53.158;6.788;2022-10-16T03:55:56;12.50;99.90
55488;DHT22;41352;53.158;6.788;2022-10-16T03:58:21;12.50;99.90
55488;DHT22;41352;53.158;6.788;2022-10-16T04:00:47;12.50;99.90
55488;DHT22;41352;53.158;6.788;2022-10-16T04:03:13;12.60;99.90
55488;DHT22;41352;53.158;6.788;2022-10-16T04:05:39;12.80;99.90
55488;DHT22;41352;53.158;6.788;2022-10-16T04:08:05;12.40;99.90
55488;DHT22;41352;53.158;6.788;2022-10-16T04:10:30;12.50;99.90
55488;DHT22;41352;53.158;6.788;2022-10-16T04:12:56;12.40;99.90
55488;DHT22;41352;53.158;6.788;2022-10-16T04:15:25;12.50;99.90
55488;DHT22;41352;53.158;6.788;2022-10-16T04:17:50;12.50;99.90
55488;DHT22;41352;53.158;6.788;2022-10-16T04:20:16;12.50;99.90
55488;DHT22;41352;53.158;6.788;2022-10-16T04:22:41;12.40;99.90
55488;DHT22;41352;53.158;6.788;2022-10-16T04:25:07;12.40;99.90
55488;DHT22;41352;53.158;6.788;2022-10-16T04:27:33;12.40;99.90
55488;DHT22;41352;53.158;6.788;2022-10-16T04:29:59;12.50;99.90
55488;DHT22;41352;53.158;6.788;2022-10-16T04:32:24;12.50;99.90
55488;DHT22;41352;53.158;6.788;2022-10-16T04:34:51;12.50;99.90
55488;DHT22;41352;53.158;6.788;2022-10-16T04:37:16;12.40;99.90
55488;DHT22;41352;53.158;6.788;2022-10-16T04:39:42;12.40;99.90
55488;DHT22;41352;53.158;6.788;2022-10-16T04:42:08;12.40;99.90
55488;DHT22;41352;53.158;6.788;2022-10-16T04:44:33;12.70;99.90
55488;DHT22;41352;53.158;6.788;2022-10-16T04:46:59;12.40;99.90
55488;DHT22;41352;53.158;6.788;2022-10-16T04:49:24;12.40;99.90
55488;DHT22;41352;53.158;6.788;2022-10-16T04:51:50;12.40;99.90
55488;DHT22;41352;53.158;6.788;2022-10-16T04:54:15;12.30;99.90
55488;DHT22;41352;53.158;6.788;2022-10-16T04:56:41;12.40;99.90
55488;DHT22;41352;53.158;6.788;2022-10-16T04:59:13;12.40;99.90
55488;DHT22;41352;53.158;6.788;2022-10-16T05:01:39;12.40;99.90
55488;DHT22;41352;53.158;6.788;2022-10-16T05:04:05;12.50;99.90
55488;DHT22;41352;53.158;6.788;2022-10-16T05:06:30;12.50;99.90
55488;DHT22;41352;53.158;6.788;2022-10-16T05:08:56;12.50;99.90
55488;DHT22;41352;53.158;6.788;2022-10-16T05:11:21;12.50;99.90
55488;DHT22;41352;53.158;6.788;2022-10-16T05:13:47;12.50;99.90
55488;DHT22;41352;53.158;6.788;2022-10-16T05:16:12;12.50;99.90
55488;DHT22;41352;53.158;6.788;2022-10-16T05:18:38;12.50;99.90
55488;DHT22;41352;53.158;6.788;2022-10-16T05:21:03;12.50;99.90
55488;DHT22;41352;53.158;6.788;2022-10-16T05:23:29;12.50;99.90
55488;DHT22;41352;53.158;6.788;2022-10-16T05:25:55;12.50;99.90
55488;DHT22;41352;53.158;6.788;2022-10-16T05:28:21;12.50;99.90
55488;DHT22;41352;53.158;6.788;2022-10-16T05:30:46;12.50;99.90
55488;DHT22;41352;53.158;6.788;2022-10-16T05:33:12;12.80;99.90
55488;DHT22;41352;53.158;6.788;2022-10-16T05:35:38;12.70;99.90
55488;DHT22;41352;53.158;6.788;2022-10-16T05:38:04;12.50;99.90
55488;DHT22;41352;53.158;6.788;2022-10-16T05:40:29;12.50;99.90
55488;DHT22;41352;53.158;6.788;2022-10-16T05:42:55;12.50;99.90
55488;DHT22;41352;53.158;6.788;2022-10-16T05:45:21;12.70;99.90
55488;DHT22;41352;53.158;6.788;2022-10-16T05:47:46;12.50;99.90
55488;DHT22;41352;53.158;6.788;2022-10-16T05:50:12;12.50;99.90
55488;DHT22;41352;53.158;6.788;2022-10-16T05:52:37;12.50;99.90
55488;DHT22;41352;53.158;6.788;2022-10-16T05:55:03;12.50;99.90
55488;DHT22;41352;53.158;6.788;2022-10-16T05:57:29;12.50;99.90
55488;DHT22;41352;53.158;6.788;2022-10-16T05:59:55;12.50;99.90
55488;DHT22;41352;53.158;6.788;2022-10-16T06:02:20;12.40;99.90
55488;DHT22;41352;53.158;6.788;2022-10-16T06:04:46;12.60;99.90
55488;DHT22;41352;53.158;6.788;2022-10-16T06:07:11;12.50;99.90
55488;DHT22;41352;53.158;6.788;2022-10-16T06:09:37;12.50;99.90
55488;DHT22;41352;53.158;6.788;2022-10-16T06:12:03;12.50;99.90
55488;DHT22;41352;53.158;6.788;2022-10-16T06:14:29;12.50;99.90
55488;DHT22;41352;53.158;6.788;2022-10-16T06:16:55;12.60;99.90
55488;DHT22;41352;53.158;6.788;2022-10-16T06:19:20;12.50;99.90
55488;DHT22;41352;53.158;6.788;2022-10-16T06:21:46;12.60;99.90
55488;DHT22;41352;53.158;6.788;2022-10-16T06:24:12;12.50;99.90
55488;DHT22;41352;53.158;6.788;2022-10-16T06:26:37;12.60;99.90
55488;DHT22;41352;53.158;6.788;2022-10-16T06:29:03;12.60;99.90
55488;DHT22;41352;53.158;6.788;2022-10-16T06:31:29;12.60;99.90
55488;DHT22;41352;53.158;6.788;2022-10-16T06:33:56;12.70;99.90
55488;DHT22;41352;53.158;6.788;2022-10-16T06:36:23;13.00;99.90
55488;DHT22;41352;53.158;6.788;2022-10-16T06:38:48;12.70;99.90
55488;DHT22;41352;53.158;6.788;2022-10-16T06:41:15;12.70;99.90
55488;DHT22;41352;53.158;6.788;2022-10-16T06:43:41;12.70;99.90
55488;DHT22;41352;53.158;6.788;2022-10-16T06:46:07;12.80;99.90
55488;DHT22;41352;53.158;6.788;2022-10-16T06:48:35;12.80;99.90
55488;DHT22;41352;53.158;6.788;2022-10-16T06:53:26;12.90;99.90
55488;DHT22;41352;53.158;6.788;2022-10-16T06:55:52;13.00;99.90
55488;DHT22;41352;53.158;6.788;2022-10-16T06:58:18;13.00;99.90
55488;DHT22;41352;53.158;6.788;2022-10-16T07:00:43;13.00;99.90
55488;DHT22;41352;53.158;6.788;2022-10-16T07:03:09;13.10;99.90
55488;DHT22;41352;53.158;6.788;2022-10-16T07:05:38;13.10;99.90
55488;DHT22;41352;53.158;6.788;2022-10-16T07:08:04;13.20;99.90
55488;DHT22;41352;53.158;6.788;2022-10-16T07:10:31;13.20;99.90
55488;DHT22;41352;53.158;6.788;2022-10-16T07:12:56;13.30;99.90
55488;DHT22;41352;53.158;6.788;2022-10-16T07:15:22;13.30;99.90
55488;DHT22;41352;53.158;6.788;2022-10-16T07:17:48;13.30;99.90
55488;DHT22;41352;53.158;6.788;2022-10-16T07:20:13;13.30;99.90
55488;DHT22;41352;53.158;6.788;2022-10-16T07:22:39;13.40;99.90
55488;DHT22;41352;53.158;6.788;2022-10-16T07:25:04;13.40;99.90
55488;DHT22;41352;53.158;6.788;2022-10-16T07:27:30;13.50;99.90
55488;DHT22;41352;53.158;6.788;2022-10-16T07:29:56;13.60;99.90
55488;DHT22;41352;53.158;6.788;2022-10-16T07:32:21;13.70;99.90
55488;DHT22;41352;53.158;6.788;2022-10-16T07:34:47;13.80;99.90
55488;DHT22;41352;53.158;6.788;2022-10-16T07:37:12;13.80;99.90
55488;DHT22;41352;53.158;6.788;2022-10-16T07:39:38;13.80;99.90
55488;DHT22;41352;53.158;6.788;2022-10-16T07:42:03;13.80;99.90
55488;DHT22;41352;53.158;6.788;2022-10-16T07:44:29;13.80;99.90
55488;DHT22;41352;53.158;6.788;2022-10-16T07:46:54;13.80;99.90
55488;DHT22;41352;53.158;6.788;2022-10-16T07:49:20;13.60;99.90
55488;DHT22;41352;53.158;6.788;2022-10-16T07:51:45;13.70;99.90
55488;DHT22;41352;53.158;6.788;2022-10-16T07:54:11;13.70;99.90
55488;DHT22;41352;53.158;6.788;2022-10-16T07:56:36;13.70;99.90
55488;DHT22;41352;53.158;6.788;2022-10-16T07:59:02;13.80;99.90
55488;DHT22;41352;53.158;6.788;2022-10-16T08:01:28;13.80;99.90
55488;DHT22;41352;53.158;6.788;2022-10-16T08:03:53;13.80;99.90
55488;DHT22;41352;53.158;6.788;2022-10-16T08:06:20;13.90;99.90
55488;DHT22;41352;53.158;6.788;2022-10-16T08:08:45;14.00;99.90
55488;DHT22;41352;53.158;6.788;2022-10-16T08:11:11;13.90;99.90
55488;DHT22;41352;53.158;6.788;2022-10-16T08:13:37;14.00;99.90
55488;DHT22;41352;53.158;6.788;2022-10-16T08:16:03;14.00;99.90
55488;DHT22;41352;53.158;6.788;2022-10-16T08:18:33;14.00;99.90
55488;DHT22;41352;53.158;6.788;2022-10-16T08:20:59;14.10;99.90
55488;DHT22;41352;53.158;6.788;2022-10-16T08:23:26;14.10;99.90
55488;DHT22;41352;53.158;6.788;2022-10-16T08:25:55;14.20;99.90
55488;DHT22;41352;53.158;6.788;2022-10-16T08:28:20;14.20;99.90
55488;DHT22;41352;53.158;6.788;2022-10-16T08:30:46;14.20;99.90
55488;DHT22;41352;53.158;6.788;2022-10-16T08:33:12;14.40;99.90
55488;DHT22;41352;53.158;6.788;2022-10-16T08:35:38;14.30;99.90
55488;DHT22;41352;53.158;6.788;2022-10-16T08:38:04;14.30;99.90
55488;DHT22;41352;53.158;6.788;2022-10-16T08:40:30;14.20;99.90
55488;DHT22;41352;53.158;6.788;2022-10-16T08:45:33;14.30;99.90
55488;DHT22;41352;53.158;6.788;2022-10-16T08:48:33;14.40;99.90
55488;DHT22;41352;53.158;6.788;2022-10-16T08:50:52;14.50;99.90
55488;DHT22;41352;53.158;6.788;2022-10-16T08:53:20;14.60;99.90
55488;DHT22;41352;53.158;6.788;2022-10-16T08:55:52;14.60;99.90
55488;DHT22;41352;53.158;6.788;2022-10-16T08:58:20;14.70;99.90
55488;DHT22;41352;53.158;6.788;2022-10-16T09:00:46;14.80;99.90
55488;DHT22;41352;53.158;6.788;2022-10-16T09:18:32;16.20;99.90
55488;DHT22;41352;53.158;6.788;2022-10-16T09:23:32;16.60;99.90
55488;DHT22;41352;53.158;6.788;2022-10-16T09:25:59;17.00;99.90
55488;DHT22;41352;53.158;6.788;2022-10-16T09:28:25;17.00;99.90
55488;DHT22;41352;53.158;6.788;2022-10-16T09:30:51;17.20;99.90
55488;DHT22;41352;53.158;6.788;2022-10-16T09:33:20;17.10;99.90
55488;DHT22;41352;53.158;6.788;2022-10-16T09:35:50;17.20;99.90
55488;DHT22;41352;53.158;6.788;2022-10-16T09:38:26;16.90;99.90
55488;DHT22;41352;53.158;6.788;2022-10-16T09:40:53;17.10;99.90
55488;DHT22;41352;53.158;6.788;2022-10-16T09:43:23;18.10;99.90
55488;DHT22;41352;53.158;6.788;2022-10-16T09:45:54;17.30;99.90
55488;DHT22;41352;53.158;6.788;2022-10-16T09:48:20;17.40;99.90
55488;DHT22;41352;53.158;6.788;2022-10-16T09:50:55;17.80;99.90
55488;DHT22;41352;53.158;6.788;2022-10-16T09:53:20;17.60;99.90
55488;DHT22;41352;53.158;6.788;2022-10-16T09:55:48;17.80;99.90
55488;DHT22;41352;53.158;6.788;2022-10-16T09:58:14;18.00;99.90
55488;DHT22;41352;53.158;6.788;2022-10-16T10:00:39;17.80;99.90
55488;DHT22;41352;53.158;6.788;2022-10-16T10:03:10;17.90;99.90
55488;DHT22;41352;53.158;6.788;2022-10-16T10:05:36;17.40;99.90
55488;DHT22;41352;53.158;6.788;2022-10-16T10:08:04;17.40;99.90
55488;DHT22;41352;53.158;6.788;2022-10-16T10:10:37;17.40;99.90
55488;DHT22;41352;53.158;6.788;2022-10-16T10:13:19;17.20;99.90
55488;DHT22;41352;53.158;6.788;2022-10-16T10:15:45;17.40;99.90
55488;DHT22;41352;53.158;6.788;2022-10-16T10:18:15;17.20;99.90
55488;DHT22;41352;53.158;6.788;2022-10-16T10:20:41;17.10;99.90
55488;DHT22;41352;53.158;6.788;2022-10-16T10:23:23;17.40;99.90
55488;DHT22;41352;53.158;6.788;2022-10-16T10:28:24;17.70;99.90
55488;DHT22;41352;53.158;6.788;2022-10-16T10:33:28;17.80;99.90
55488;DHT22;41352;53.158;6.788;2022-10-16T10:36:05;17.50;99.90
55488;DHT22;41352;53.158;6.788;2022-10-16T10:38:38;17.80;99.90
55488;DHT22;41352;53.158;6.788;2022-10-16T10:41:27;17.50;99.90
55488;DHT22;41352;53.158;6.788;2022-10-16T10:46:18;17.90;99.90
55488;DHT22;41352;53.158;6.788;2022-10-16T10:51:45;18.10;99.90
55488;DHT22;41352;53.158;6.788;2022-10-16T10:54:16;18.20;99.90
55488;DHT22;41352;53.158;6.788;2022-10-16T10:56:50;18.40;99.90
55488;DHT22;41352;53.158;6.788;2022-10-16T11:02:00;19.80;99.90
55488;DHT22;41352;53.158;6.788;2022-10-16T11:07:05;19.10;99.90
55488;DHT22;41352;53.158;6.788;2022-10-16T11:09:34;19.20;99.90
55488;DHT22;41352;53.158;6.788;2022-10-16T11:14:49;18.80;99.90
55488;DHT22;41352;53.158;6.788;2022-10-16T11:17:18;19.10;99.90
55488;DHT22;41352;53.158;6.788;2022-10-16T11:19:56;19.30;99.90
55488;DHT22;41352;53.158;6.788;2022-10-16T11:22:36;19.30;99.90
55488;DHT22;41352;53.158;6.788;2022-10-16T11:25:19;18.90;99.90
55488;DHT22;41352;53.158;6.788;2022-10-16T11:30:14;18.50;99.90
55488;DHT22;41352;53.158;6.788;2022-10-16T11:38:13;18.00;99.90
55488;DHT22;41352;53.158;6.788;2022-10-16T11:40:40;17.70;99.90
55488;DHT22;41352;53.158;6.788;2022-10-16T11:43:12;17.40;99.90
55488;DHT22;41352;53.158;6.788;2022-10-16T11:45:42;17.60;99.90
55488;DHT22;41352;53.158;6.788;2022-10-16T11:48:12;17.70;99.90
55488;DHT22;41352;53.158;6.788;2022-10-16T11:50:44;17.70;99.90
55488;DHT22;41352;53.158;6.788;2022-10-16T11:53:13;17.80;99.90
55488;DHT22;41352;53.158;6.788;2022-10-16T11:55:41;17.90;99.90
55488;DHT22;41352;53.158;6.788;2022-10-16T11:58:29;18.00;99.90
55488;DHT22;41352;53.158;6.788;2022-10-16T12:08:37;18.30;99.90
55488;DHT22;41352;53.158;6.788;2022-10-16T12:11:07;18.60;99.90
55488;DHT22;41352;53.158;6.788;2022-10-16T12:13:37;18.60;99.90
55488;DHT22;41352;53.158;6.788;2022-10-16T12:18:31;18.70;99.90
55488;DHT22;41352;53.158;6.788;2022-10-16T12:20:57;18.90;99.90
55488;DHT22;41352;53.158;6.788;2022-10-16T12:23:31;19.50;99.90
55488;DHT22;41352;53.158;6.788;2022-10-16T12:25:58;20.20;99.90
55488;DHT22;41352;53.158;6.788;2022-10-16T12:28:28;19.70;99.90
55488;DHT22;41352;53.158;6.788;2022-10-16T12:30:55;19.30;99.90
55488;DHT22;41352;53.158;6.788;2022-10-16T12:33:24;19.20;99.90
55488;DHT22;41352;53.158;6.788;2022-10-16T12:35:50;19.20;99.90
55488;DHT22;41352;53.158;6.788;2022-10-16T12:40:45;19.00;99.90
55488;DHT22;41352;53.158;6.788;2022-10-16T12:43:23;18.80;99.90
55488;DHT22;41352;53.158;6.788;2022-10-16T12:46:04;18.80;99.90
55488;DHT22;41352;53.158;6.788;2022-10-16T12:48:30;19.10;99.90
55488;DHT22;41352;53.158;6.788;2022-10-16T12:50:56;18.90;99.90
55488;DHT22;41352;53.158;6.788;2022-10-16T12:53:23;19.10;99.90
55488;DHT22;41352;53.158;6.788;2022-10-16T12:55:54;19.20;99.90
55488;DHT22;41352;53.158;6.788;2022-10-16T12:59:08;19.20;99.90
55488;DHT22;41352;53.158;6.788;2022-10-16T13:01:11;19.40;99.90
55488;DHT22;41352;53.158;6.788;2022-10-16T13:06:22;19.70;99.90
55488;DHT22;41352;53.158;6.788;2022-10-16T13:09:55;19.50;99.90
55488;DHT22;41352;53.158;6.788;2022-10-16T13:12:06;19.60;99.90
55488;DHT22;41352;53.158;6.788;2022-10-16T13:25:30;20.70;99.90
55488;DHT22;41352;53.158;6.788;2022-10-16T13:28:05;21.80;99.90
55488;DHT22;41352;53.158;6.788;2022-10-16T13:30:41;23.20;99.90
55488;DHT22;41352;53.158;6.788;2022-10-16T13:33:12;22.00;99.90
55488;DHT22;41352;53.158;6.788;2022-10-16T13:35:46;21.00;99.90
55488;DHT22;41352;53.158;6.788;2022-10-16T13:38:13;20.80;99.90
55488;DHT22;41352;53.158;6.788;2022-10-16T13:43:14;20.80;99.90
55488;DHT22;41352;53.158;6.788;2022-10-16T13:45:39;20.20;99.90
55488;DHT22;41352;53.158;6.788;2022-10-16T13:48:06;20.20;99.90
55488;DHT22;41352;53.158;6.788;2022-10-16T13:50:31;20.40;99.90
55488;DHT22;41352;53.158;6.788;2022-10-16T13:53:07;20.30;99.90
55488;DHT22;41352;53.158;6.788;2022-10-16T13:55:37;20.10;99.90
55488;DHT22;41352;53.158;6.788;2022-10-16T13:58:12;19.60;99.90
55488;DHT22;41352;53.158;6.788;2022-10-16T14:00:38;19.50;99.90
55488;DHT22;41352;53.158;6.788;2022-10-16T14:03:05;19.40;99.90
55488;DHT22;41352;53.158;6.788;2022-10-16T14:05:32;19.10;99.90
55488;DHT22;41352;53.158;6.788;2022-10-16T14:07:58;19.30;99.90
55488;DHT22;41352;53.158;6.788;2022-10-16T14:13:28;19.10;99.90
55488;DHT22;41352;53.158;6.788;2022-10-16T14:15:45;19.10;99.90
55488;DHT22;41352;53.158;6.788;2022-10-16T14:18:19;19.40;99.90
55488;DHT22;41352;53.158;6.788;2022-10-16T14:20:45;19.30;99.90
55488;DHT22;41352;53.158;6.788;2022-10-16T14:23:28;19.40;99.90
55488;DHT22;41352;53.158;6.788;2022-10-16T14:25:54;19.30;99.90
55488;DHT22;41352;53.158;6.788;2022-10-16T14:28:30;19.10;99.90
55488;DHT22;41352;53.158;6.788;2022-10-16T14:30:57;18.80;99.90
55488;DHT22;41352;53.158;6.788;2022-10-16T14:35:57;18.30;99.90
55488;DHT22;41352;53.158;6.788;2022-10-16T14:38:24;18.30;99.90
55488;DHT22;41352;53.158;6.788;2022-10-16T14:40:49;18.00;99.90
55488;DHT22;41352;53.158;6.788;2022-10-16T14:43:37;18.00;99.90
55488;DHT22;41352;53.158;6.788;2022-10-16T14:46:01;17.90;99.90
55488;DHT22;41352;53.158;6.788;2022-10-16T14:48:27;17.70;99.90
55488;DHT22;41352;53.158;6.788;2022-10-16T14:50:53;17.60;99.90
55488;DHT22;41352;53.158;6.788;2022-10-16T14:53:19;17.50;99.90
55488;DHT22;41352;53.158;6.788;2022-10-16T14:55:44;17.40;99.90
55488;DHT22;41352;53.158;6.788;2022-10-16T14:58:15;17.30;99.90
55488;DHT22;41352;53.158;6.788;2022-10-16T15:00:41;17.20;99.90
55488;DHT22;41352;53.158;6.788;2022-10-16T15:03:06;17.20;99.90
55488;DHT22;41352;53.158;6.788;2022-10-16T15:05:32;17.10;99.90
55488;DHT22;41352;53.158;6.788;2022-10-16T15:07:58;17.10;99.90
55488;DHT22;41352;53.158;6.788;2022-10-16T15:10:24;17.00;99.90
55488;DHT22;41352;53.158;6.788;2022-10-16T15:12:51;17.10;99.90
55488;DHT22;41352;53.158;6.788;2022-10-16T15:17:48;17.10;99.90
55488;DHT22;41352;53.158;6.788;2022-10-16T15:20:17;17.10;99.90
55488;DHT22;41352;53.158;6.788;2022-10-16T15:22:43;17.10;99.90
55488;DHT22;41352;53.158;6.788;2022-10-16T15:25:25;17.10;99.90
55488;DHT22;41352;53.158;6.788;2022-10-16T15:27:52;17.10;99.90
55488;DHT22;41352;53.158;6.788;2022-10-16T15:30:18;17.10;99.90
55488;DHT22;41352;53.158;6.788;2022-10-16T15:32:43;17.10;99.90
55488;DHT22;41352;53.158;6.788;2022-10-16T15:35:09;17.00;99.90
55488;DHT22;41352;53.158;6.788;2022-10-16T15:37:35;17.00;99.90
55488;DHT22;41352;53.158;6.788;2022-10-16T15:40:00;17.00;99.90
55488;DHT22;41352;53.158;6.788;2022-10-16T15:42:26;16.90;99.90
55488;DHT22;41352;53.158;6.788;2022-10-16T15:44:51;16.80;99.90
55488;DHT22;41352;53.158;6.788;2022-10-16T15:47:17;16.80;99.90
55488;DHT22;41352;53.158;6.788;2022-10-16T15:49:42;16.70;99.90
55488;DHT22;41352;53.158;6.788;2022-10-16T15:52:08;16.60;99.90
55488;DHT22;41352;53.158;6.788;2022-10-16T15:54:33;16.60;99.90
55488;DHT22;41352;53.158;6.788;2022-10-16T15:56:59;16.50;99.90
55488;DHT22;41352;53.158;6.788;2022-10-16T15:59:24;16.40;99.90
55488;DHT22;41352;53.158;6.788;2022-10-16T16:01:50;16.30;99.90
55488;DHT22;41352;53.158;6.788;2022-10-16T16:04:15;16.20;99.90
55488;DHT22;41352;53.158;6.788;2022-10-16T16:06:42;16.20;99.90
55488;DHT22;41352;53.158;6.788;2022-10-16T16:09:13;16.10;99.90
55488;DHT22;41352;53.158;6.788;2022-10-16T16:11:39;15.90;99.90
55488;DHT22;41352;53.158;6.788;2022-10-16T16:14:07;15.90;99.90
55488;DHT22;41352;53.158;6.788;2022-10-16T16:16:35;15.80;99.90
55488;DHT22;41352;53.158;6.788;2022-10-16T16:19:06;15.60;99.90
55488;DHT22;41352;53.158;6.788;2022-10-16T16:21:32;15.50;99.90
55488;DHT22;41352;53.158;6.788;2022-10-16T16:23:58;15.40;99.90
55488;DHT22;41352;53.158;6.788;2022-10-16T16:26:25;15.30;99.90
55488;DHT22;41352;53.158;6.788;2022-10-16T16:28:51;15.20;99.90
55488;DHT22;41352;53.158;6.788;2022-10-16T16:31:17;15.00;99.90
55488;DHT22;41352;53.158;6.788;2022-10-16T16:33:42;15.00;99.90
55488;DHT22;41352;53.158;6.788;2022-10-16T16:36:08;14.90;99.90
55488;DHT22;41352;53.158;6.788;2022-10-16T16:38:34;14.80;99.90
55488;DHT22;41352;53.158;6.788;2022-10-16T16:41:10;14.70;99.90
55488;DHT22;41352;53.158;6.788;2022-10-16T16:43:35;14.50;99.90
55488;DHT22;41352;53.158;6.788;2022-10-16T16:46:01;14.50;99.90
55488;DHT22;41352;53.158;6.788;2022-10-16T16:48:26;14.40;99.90
55488;DHT22;41352;53.158;6.788;2022-10-16T16:50:52;14.30;99.90
55488;DHT22;41352;53.158;6.788;2022-10-16T16:53:17;14.10;99.90
55488;DHT22;41352;53.158;6.788;2022-10-16T16:55:43;14.00;99.90
55488;DHT22;41352;53.158;6.788;2022-10-16T16:58:09;13.90;99.90
55488;DHT22;41352;53.158;6.788;2022-10-16T17:00:34;13.90;99.90
55488;DHT22;41352;53.158;6.788;2022-10-16T17:03:00;13.70;99.90
55488;DHT22;41352;53.158;6.788;2022-10-16T17:05:26;13.70;99.90
55488;DHT22;41352;53.158;6.788;2022-10-16T17:07:51;13.60;99.90
55488;DHT22;41352;53.158;6.788;2022-10-16T17:10:17;13.50;99.90
55488;DHT22;41352;53.158;6.788;2022-10-16T17:12:42;13.50;99.90
55488;DHT22;41352;53.158;6.788;2022-10-16T17:15:08;13.40;99.90